createdAt,value
2017-06-26T00:01:00.730Z,19.60
2017-06-26T00:03:29.833Z,19.60
2017-06-26T00:05:58.911Z,19.60
2017-06-26T00:08:27.182Z,19.60
2017-06-26T00:13:25.019Z,19.50
2017-06-26T00:15:53.301Z,19.50
2017-06-26T00:18:21.634Z,19.40
2017-06-26T00:20:50.679Z,19.40
2017-06-26T00:23:19.375Z,19.40
2017-06-26T00:25:47.752Z,19.30
2017-06-26T00:28:16.023Z,19.40
2017-06-26T00:30:44.306Z,19.40
2017-06-26T00:35:42.907Z,19.40
2017-06-26T00:38:11.184Z,19.40
2017-06-26T00:40:39.510Z,19.50
2017-06-26T00:43:08.550Z,19.50
2017-06-26T00:45:37.590Z,19.50
2017-06-26T00:48:06.678Z,19.50
2017-06-26T00:50:34.970Z,19.50
2017-06-26T00:53:03.280Z,19.50
2017-06-26T00:55:31.643Z,19.50
2017-06-26T00:58:01.082Z,19.40
2017-06-26T01:00:29.381Z,19.50
2017-06-26T01:02:57.712Z,19.50
2017-06-26T01:05:25.979Z,19.50
2017-06-26T01:07:55.763Z,19.50
2017-06-26T01:10:24.087Z,19.50
2017-06-26T01:12:52.363Z,19.60
2017-06-26T01:15:20.655Z,19.60
2017-06-26T01:17:49.000Z,19.60
2017-06-26T01:20:18.067Z,19.70
2017-06-26T01:22:47.110Z,19.70
2017-06-26T01:25:15.454Z,19.70
2017-06-26T01:27:44.496Z,19.70
2017-06-26T01:30:12.774Z,19.70
2017-06-26T01:35:10.599Z,19.70
2017-06-26T01:37:38.879Z,19.70
2017-06-26T01:40:07.207Z,19.80
2017-06-26T01:42:36.991Z,19.70
2017-06-26T01:45:05.279Z,19.80
2017-06-26T01:47:33.622Z,19.80
2017-06-26T01:50:01.911Z,19.70
2017-06-26T01:55:00.178Z,19.70
2017-06-26T01:57:28.461Z,19.80
2017-06-26T01:59:56.735Z,19.70
2017-06-26T02:02:26.198Z,19.80
2017-06-26T02:04:55.247Z,19.80
2017-06-26T02:07:24.286Z,19.80
2017-06-26T02:09:53.742Z,19.80
2017-06-26T02:12:22.418Z,19.80
2017-06-26T02:14:50.691Z,19.80
2017-06-26T02:17:19.034Z,19.70
2017-06-26T02:19:47.307Z,19.80
2017-06-26T02:22:15.591Z,19.80
2017-06-26T02:24:45.064Z,19.70
2017-06-26T02:29:43.242Z,19.70
2017-06-26T02:32:11.564Z,19.70
2017-06-26T02:34:39.835Z,19.70
2017-06-26T02:37:08.115Z,19.70
2017-06-26T02:39:36.439Z,19.70
2017-06-26T02:42:04.736Z,19.70
2017-06-26T02:44:33.031Z,19.70
2017-06-26T02:47:02.158Z,19.70
2017-06-26T02:49:31.280Z,19.70
2017-06-26T02:52:00.340Z,19.70
2017-06-26T02:54:30.258Z,19.70
2017-06-26T02:59:28.506Z,19.60
2017-06-26T03:01:57.619Z,19.70
2017-06-26T03:04:27.407Z,19.70
2017-06-26T03:06:56.080Z,19.60
2017-06-26T03:09:25.171Z,19.60
2017-06-26T03:11:58.076Z,19.60
2017-06-26T03:14:27.566Z,19.60
2017-06-26T03:16:55.852Z,19.60
2017-06-26T03:19:24.127Z,19.60
2017-06-26T03:21:53.595Z,19.60
2017-06-26T03:24:22.639Z,19.60
2017-06-26T03:26:51.683Z,19.60
2017-06-26T03:29:21.146Z,19.60
2017-06-26T03:34:20.083Z,19.60
2017-06-26T03:36:48.420Z,19.60
2017-06-26T03:39:18.214Z,19.60
2017-06-26T03:41:47.275Z,19.60
2017-06-26T03:44:16.738Z,19.60
2017-06-26T03:46:45.043Z,19.50
2017-06-26T03:49:13.326Z,19.60
2017-06-26T03:51:41.660Z,19.50
2017-06-26T03:54:09.935Z,19.60
2017-06-26T03:56:38.218Z,19.60
2017-06-26T03:59:07.691Z,19.50
2017-06-26T04:01:36.374Z,19.60
2017-06-26T04:04:06.163Z,19.60
2017-06-26T04:06:35.626Z,19.60
2017-06-26T04:09:04.688Z,19.50
2017-06-26T04:11:33.746Z,19.50
2017-06-26T04:14:02.099Z,19.50
2017-06-26T04:16:30.413Z,19.50
2017-06-26T04:18:58.740Z,19.60
2017-06-26T04:21:28.199Z,19.60
2017-06-26T04:23:56.476Z,19.60
2017-06-26T04:26:24.750Z,19.60
2017-06-26T04:28:53.085Z,19.60
2017-06-26T04:31:21.371Z,19.60
2017-06-26T04:33:49.666Z,19.60
2017-06-26T04:36:19.143Z,19.50
2017-06-26T04:38:48.199Z,19.50
2017-06-26T04:41:17.254Z,19.60
2017-06-26T04:43:45.994Z,19.60
2017-06-26T04:46:14.279Z,19.60
2017-06-26T04:48:42.562Z,19.60
2017-06-26T04:51:11.650Z,19.70
2017-06-26T04:53:40.701Z,19.70
2017-06-26T04:56:08.978Z,19.70
2017-06-26T04:58:38.078Z,19.60
2017-06-26T05:01:06.367Z,19.60
2017-06-26T05:06:04.249Z,19.70
2017-06-26T05:08:32.554Z,19.70
2017-06-26T05:11:00.866Z,19.70
2017-06-26T05:15:58.804Z,19.80
2017-06-26T05:18:27.874Z,19.70
2017-06-26T05:20:57.354Z,19.80
2017-06-26T05:26:25.951Z,19.70
2017-06-26T05:31:24.136Z,19.80
2017-06-26T05:33:52.495Z,19.80
2017-06-26T05:36:20.783Z,19.80
2017-06-26T05:38:49.875Z,19.80
2017-06-26T05:41:18.219Z,19.90
2017-06-26T05:43:46.507Z,19.90
2017-06-26T05:46:14.799Z,19.90
2017-06-26T05:48:43.127Z,20.00
2017-06-26T05:51:12.179Z,20.00
2017-06-26T05:53:40.462Z,20.10
2017-06-26T05:56:08.799Z,20.00
2017-06-26T05:58:37.092Z,20.10
2017-06-26T06:01:05.379Z,20.10
2017-06-26T06:03:35.222Z,20.00
2017-06-26T06:06:03.526Z,20.10
2017-06-26T06:08:31.827Z,20.10
2017-06-26T06:11:00.163Z,20.10
2017-06-26T06:13:28.464Z,20.10
2017-06-26T06:15:57.166Z,20.10
2017-06-26T06:18:25.506Z,20.00
2017-06-26T06:20:53.795Z,20.00
2017-06-26T06:23:22.080Z,20.00
2017-06-26T06:25:51.918Z,20.00
2017-06-26T06:28:20.219Z,20.00
2017-06-26T06:30:48.535Z,20.00
2017-06-26T06:33:16.880Z,19.90
2017-06-26T06:35:45.174Z,19.80
2017-06-26T06:38:13.466Z,19.70
2017-06-26T06:40:42.938Z,19.50
2017-06-26T06:43:11.222Z,19.40
2017-06-26T06:45:39.510Z,19.30
2017-06-26T06:48:09.370Z,19.20
2017-06-26T06:53:07.943Z,19.10
2017-06-26T06:55:36.275Z,19.10
2017-06-26T06:58:05.339Z,19.10
2017-06-26T07:00:33.627Z,19.10
2017-06-26T07:03:02.002Z,19.10
2017-06-26T07:05:30.302Z,19.10
2017-06-26T07:07:59.772Z,19.10
2017-06-26T07:10:28.096Z,19.20
2017-06-26T07:12:56.382Z,19.40
2017-06-26T07:15:24.665Z,19.60
2017-06-26T07:17:54.507Z,19.70
2017-06-26T07:20:22.790Z,20.00
2017-06-26T07:22:51.082Z,20.20
2017-06-26T07:25:19.433Z,20.50
2017-06-26T07:27:47.755Z,20.70
2017-06-26T07:30:17.571Z,20.80
2017-06-26T07:32:45.911Z,21.00
2017-06-26T07:35:14.960Z,21.20
2017-06-26T07:37:43.243Z,21.30
2017-06-26T07:40:11.591Z,21.50
2017-06-26T07:42:41.386Z,21.60
2017-06-26T07:45:11.211Z,21.70
2017-06-26T07:47:39.544Z,21.80
2017-06-26T07:52:38.106Z,22.20
2017-06-26T07:55:07.954Z,22.40
2017-06-26T07:57:36.238Z,22.60
2017-06-26T08:00:04.534Z,22.60
2017-06-26T08:02:33.316Z,22.70
2017-06-26T08:05:02.756Z,22.80
2017-06-26T08:07:31.079Z,22.80
2017-06-26T08:09:59.450Z,22.80
2017-06-26T08:14:57.659Z,23.00
2017-06-26T08:17:25.978Z,23.20
2017-06-26T08:27:23.250Z,24.10
2017-06-26T08:32:21.486Z,24.60
2017-06-26T08:34:49.768Z,24.80
2017-06-26T08:37:18.088Z,25.10
2017-06-26T08:39:46.807Z,25.40
2017-06-26T08:42:15.871Z,25.60
2017-06-26T08:44:44.545Z,25.80
2017-06-26T08:47:12.902Z,25.90
2017-06-26T08:49:41.177Z,26.20
2017-06-26T08:52:09.450Z,26.40
2017-06-26T08:54:37.794Z,26.60
2017-06-26T08:57:06.464Z,26.80
2017-06-26T09:02:04.736Z,26.90
2017-06-26T09:07:02.973Z,26.90
2017-06-26T09:09:32.166Z,27.00
2017-06-26T09:12:01.234Z,27.00
2017-06-26T09:14:29.550Z,26.90
2017-06-26T09:16:57.902Z,26.90
2017-06-26T09:19:26.178Z,26.90
2017-06-26T09:21:54.460Z,26.70
2017-06-26T09:24:23.941Z,26.60
2017-06-26T09:26:52.214Z,26.60
2017-06-26T09:29:20.503Z,26.60
2017-06-26T09:31:48.839Z,26.70
2017-06-26T09:34:17.127Z,26.80
2017-06-26T09:36:45.406Z,26.70
2017-06-26T09:39:13.759Z,26.70
2017-06-26T09:41:42.798Z,26.80
2017-06-26T09:44:11.091Z,26.90
2017-06-26T09:46:40.938Z,26.90
2017-06-26T09:51:39.110Z,26.90
2017-06-26T09:54:07.451Z,27.00
2017-06-26T09:56:37.234Z,27.20
2017-06-26T09:59:05.524Z,27.40
2017-06-26T10:01:34.643Z,27.50
2017-06-26T10:04:03.710Z,27.60
2017-06-26T10:06:32.426Z,27.70
2017-06-26T10:09:00.820Z,27.80
2017-06-26T10:11:29.120Z,28.00
2017-06-26T10:13:58.551Z,28.10
2017-06-26T10:16:26.882Z,28.00
2017-06-26T10:18:55.167Z,28.00
2017-06-26T10:21:24.579Z,28.10
2017-06-26T10:23:53.670Z,28.10
2017-06-26T10:26:22.724Z,28.20
2017-06-26T10:28:52.506Z,28.20
2017-06-26T10:31:21.119Z,28.20
2017-06-26T10:33:49.411Z,28.30
2017-06-26T10:36:17.712Z,28.50
2017-06-26T10:38:46.510Z,28.60
2017-06-26T10:41:15.182Z,28.70
2017-06-26T10:43:44.598Z,28.60
2017-06-26T10:46:13.683Z,28.60
2017-06-26T10:48:41.963Z,28.50
2017-06-26T10:51:10.243Z,28.60
2017-06-26T10:53:39.247Z,28.70
2017-06-26T10:56:08.655Z,28.90
2017-06-26T10:58:37.330Z,29.00
2017-06-26T11:01:07.127Z,29.20
2017-06-26T11:03:35.415Z,29.30
2017-06-26T11:06:04.475Z,29.30
2017-06-26T11:08:34.420Z,29.10
2017-06-26T11:13:32.623Z,28.80
2017-06-26T11:18:30.898Z,28.80
2017-06-26T11:20:59.202Z,28.90
2017-06-26T11:23:27.531Z,28.90
2017-06-26T11:25:55.807Z,29.00
2017-06-26T11:28:24.082Z,29.10
2017-06-26T11:30:52.681Z,29.20
2017-06-26T11:33:22.094Z,29.40
2017-06-26T11:35:50.779Z,29.40
2017-06-26T11:38:20.607Z,29.40
2017-06-26T11:40:48.914Z,29.40
2017-06-26T11:43:17.970Z,29.70
2017-06-26T11:45:47.428Z,29.70
2017-06-26T11:48:16.463Z,29.80
2017-06-26T11:50:46.243Z,29.90
2017-06-26T11:55:44.499Z,29.60
2017-06-26T12:08:11.298Z,30.00
2017-06-26T12:13:09.830Z,29.90
2017-06-26T12:15:38.150Z,29.80
2017-06-26T12:18:06.439Z,29.90
2017-06-26T12:20:36.235Z,29.70
2017-06-26T12:23:06.064Z,29.40
2017-06-26T12:25:34.764Z,29.10
2017-06-26T12:28:04.212Z,28.80
2017-06-26T12:33:02.507Z,28.80
2017-06-26T12:35:30.794Z,28.70
2017-06-26T12:38:00.665Z,28.80
2017-06-26T12:40:29.000Z,28.70
2017-06-26T12:42:57.294Z,28.70
2017-06-26T12:45:25.652Z,28.70
2017-06-26T12:47:53.922Z,28.80
2017-06-26T12:50:23.339Z,28.90
2017-06-26T12:52:51.659Z,29.10
2017-06-26T12:55:20.710Z,29.20
2017-06-26T12:57:49.762Z,29.30
2017-06-26T13:00:18.121Z,29.20
2017-06-26T13:02:46.391Z,29.40
2017-06-26T13:05:15.811Z,29.30
2017-06-26T13:10:14.031Z,29.40
2017-06-26T13:15:12.255Z,29.30
2017-06-26T13:17:40.534Z,29.40
2017-06-26T13:20:08.812Z,29.60
2017-06-26T13:22:37.546Z,29.60
2017-06-26T13:25:06.586Z,29.60
2017-06-26T13:27:34.870Z,29.50
2017-06-26T13:30:03.275Z,29.50
2017-06-26T13:32:31.962Z,29.50
2017-06-26T13:35:00.288Z,29.30
2017-06-26T13:37:29.765Z,29.30
2017-06-26T13:39:59.729Z,29.20
2017-06-26T13:44:58.379Z,29.20
2017-06-26T13:47:26.661Z,29.20
2017-06-26T13:49:55.698Z,29.20
2017-06-26T13:54:53.918Z,29.40
2017-06-26T13:57:22.207Z,29.40
2017-06-26T13:59:50.559Z,29.30
2017-06-26T14:02:20.382Z,29.20
2017-06-26T14:04:48.702Z,28.80
2017-06-26T14:07:17.027Z,28.80
2017-06-26T14:09:45.695Z,28.70
2017-06-26T14:12:15.103Z,28.50
2017-06-26T14:14:44.946Z,28.40
2017-06-26T14:17:13.227Z,28.30
2017-06-26T14:19:41.499Z,28.10
2017-06-26T14:22:09.819Z,28.00
2017-06-26T14:24:38.094Z,27.90
2017-06-26T14:27:06.370Z,27.70
2017-06-26T14:29:35.491Z,27.50
2017-06-26T14:32:04.544Z,27.40
2017-06-26T14:37:02.389Z,27.10
2017-06-26T14:42:00.215Z,26.80
2017-06-26T14:46:58.441Z,26.60
2017-06-26T14:49:28.286Z,26.40
2017-06-26T14:51:56.873Z,26.40
2017-06-26T14:54:25.144Z,26.20
2017-06-26T14:56:53.418Z,26.20
2017-06-26T14:59:23.627Z,26.10
2017-06-26T15:01:53.403Z,26.10
2017-06-26T15:04:21.675Z,26.10
2017-06-26T15:06:51.063Z,26.00
2017-06-26T15:09:20.115Z,26.00
2017-06-26T15:11:48.403Z,26.10
2017-06-26T15:14:17.484Z,26.00
2017-06-26T15:19:15.676Z,25.90
2017-06-26T15:24:13.886Z,25.70
2017-06-26T15:26:42.159Z,25.60
2017-06-26T15:29:10.739Z,25.60
2017-06-26T15:34:08.519Z,25.40
2017-06-26T15:39:06.726Z,25.20
2017-06-26T15:41:35.415Z,25.20
2017-06-26T15:44:04.109Z,25.20
2017-06-26T15:46:33.899Z,25.20
2017-06-26T15:49:03.715Z,25.20
2017-06-26T15:51:32.062Z,25.20
2017-06-26T15:58:59.904Z,25.20
2017-06-26T16:01:29.715Z,25.20
2017-06-26T16:03:57.999Z,25.10
2017-06-26T16:06:26.658Z,25.10
2017-06-26T16:08:56.071Z,25.10
2017-06-26T16:11:24.353Z,25.10
2017-06-26T16:13:52.679Z,25.10
2017-06-26T16:16:20.958Z,25.00
2017-06-26T16:18:49.241Z,25.00
2017-06-26T16:21:18.698Z,25.00
2017-06-26T16:23:46.975Z,25.00
2017-06-26T16:26:15.251Z,24.90
2017-06-26T16:28:43.569Z,24.80
2017-06-26T16:31:11.851Z,24.90
2017-06-26T16:36:11.332Z,24.90
2017-06-26T16:41:09.514Z,24.80
2017-06-26T16:43:37.846Z,24.90
2017-06-26T16:46:06.141Z,24.90
2017-06-26T16:48:35.941Z,24.80
2017-06-26T16:51:04.270Z,24.80
2017-06-26T16:53:32.552Z,24.70
2017-06-26T16:56:00.870Z,24.80
2017-06-26T16:58:31.034Z,24.70
2017-06-26T17:00:59.353Z,24.60
2017-06-26T17:03:28.799Z,24.60
2017-06-26T17:05:57.135Z,24.70
2017-06-26T17:10:55.700Z,24.70
2017-06-26T17:13:25.535Z,24.70
2017-06-26T17:15:53.819Z,24.70
2017-06-26T17:18:23.237Z,24.70
2017-06-26T17:20:52.322Z,24.70
2017-06-26T17:23:21.372Z,24.60
2017-06-26T17:28:19.627Z,24.60
2017-06-26T17:30:47.929Z,24.60
2017-06-26T17:33:16.206Z,24.50
2017-06-26T17:35:44.531Z,24.50
2017-06-26T17:38:12.806Z,24.50
2017-06-26T17:40:41.082Z,24.50
2017-06-26T17:43:10.682Z,24.40
2017-06-26T17:45:38.968Z,24.40
2017-06-26T17:48:07.257Z,24.40
2017-06-26T17:50:35.869Z,24.40
2017-06-26T17:55:33.698Z,24.30
2017-06-26T17:58:02.340Z,24.30
2017-06-26T18:00:31.031Z,24.30
2017-06-26T18:02:59.340Z,24.30
2017-06-26T18:05:29.185Z,24.20
2017-06-26T18:07:57.466Z,24.10
2017-06-26T18:15:25.558Z,24.10
2017-06-26T18:17:53.835Z,24.10
2017-06-26T18:22:52.059Z,24.10
2017-06-26T18:25:20.331Z,24.00
2017-06-26T18:27:49.066Z,24.00
2017-06-26T18:32:47.259Z,24.00
2017-06-26T18:35:15.731Z,23.90
2017-06-26T18:40:14.642Z,24.00
2017-06-26T18:45:12.979Z,23.90
2017-06-26T18:47:41.259Z,23.90
2017-06-26T18:50:09.610Z,23.80
2017-06-26T18:52:37.907Z,23.80
2017-06-26T18:55:07.359Z,23.80
2017-06-26T18:57:35.699Z,23.70
2017-06-26T19:00:04.015Z,23.70
2017-06-26T19:05:01.945Z,23.60
2017-06-26T19:10:00.590Z,23.50
2017-06-26T19:12:29.128Z,23.50
2017-06-26T19:14:58.206Z,23.40
2017-06-26T19:17:27.243Z,23.30
2017-06-26T19:19:55.607Z,23.30
2017-06-26T19:22:24.655Z,23.30
2017-06-26T19:24:52.942Z,23.30
2017-06-26T19:27:21.274Z,23.20
2017-06-26T19:29:50.354Z,23.20
2017-06-26T19:32:19.394Z,23.10
2017-06-26T19:34:47.727Z,23.00
2017-06-26T19:37:15.999Z,22.90
2017-06-26T19:39:45.784Z,22.80
2017-06-26T19:42:14.111Z,22.80
2017-06-26T19:44:42.391Z,22.80
2017-06-26T19:47:10.662Z,22.70
2017-06-26T19:52:08.639Z,22.70
2017-06-26T19:54:36.914Z,22.60
2017-06-26T19:59:35.155Z,22.50
2017-06-26T20:02:03.478Z,22.40
2017-06-26T20:04:31.839Z,22.30
2017-06-26T20:07:00.935Z,22.30
2017-06-26T20:09:30.011Z,22.30
2017-06-26T20:11:59.107Z,22.30
2017-06-26T20:14:27.382Z,22.20
2017-06-26T20:16:55.659Z,22.10
2017-06-26T20:19:25.206Z,22.00
2017-06-26T20:21:53.482Z,22.00
2017-06-26T20:24:21.758Z,21.90
2017-06-26T20:26:50.094Z,21.80
2017-06-26T20:29:19.902Z,21.70
2017-06-26T20:31:48.204Z,21.70
2017-06-26T20:34:17.787Z,21.80
2017-06-26T20:36:46.467Z,21.70
2017-06-26T20:39:15.506Z,21.70
2017-06-26T20:41:44.219Z,21.60
2017-06-26T20:44:13.262Z,21.60
2017-06-26T20:46:41.539Z,21.60
2017-06-26T20:49:10.622Z,21.50
2017-06-26T20:54:09.167Z,21.50
2017-06-26T20:56:37.488Z,21.50
2017-06-26T20:59:05.763Z,21.40
2017-06-26T21:01:35.555Z,21.40
2017-06-26T21:04:06.367Z,21.40
2017-06-26T21:06:35.059Z,21.30
2017-06-26T21:09:03.750Z,21.30
2017-06-26T21:11:32.088Z,21.20
2017-06-26T21:14:00.442Z,21.20
2017-06-26T21:16:28.724Z,21.10
2017-06-26T21:18:57.330Z,21.10
2017-06-26T21:21:26.746Z,21.10
2017-06-26T21:23:55.026Z,21.10
2017-06-26T21:26:23.354Z,21.10
2017-06-26T21:28:52.403Z,21.00
2017-06-26T21:31:21.815Z,21.00
2017-06-26T21:33:50.531Z,20.90
2017-06-26T21:36:18.822Z,20.90
2017-06-26T21:38:47.105Z,20.90
2017-06-26T21:41:15.786Z,20.90
2017-06-26T21:43:45.194Z,20.90
2017-06-26T21:46:13.474Z,20.80
2017-06-26T21:48:41.810Z,20.70
2017-06-26T21:51:10.088Z,20.70
2017-06-26T21:56:07.936Z,20.60
2017-06-26T21:58:36.210Z,20.60
2017-06-26T22:03:35.232Z,20.60
2017-06-26T22:08:33.046Z,20.60
2017-06-26T22:11:01.425Z,20.60
2017-06-26T22:13:30.504Z,20.60
2017-06-26T22:15:58.780Z,20.50
2017-06-26T22:18:28.914Z,20.50
2017-06-26T22:20:57.231Z,20.50
2017-06-26T22:23:27.010Z,20.40
2017-06-26T22:25:55.334Z,20.40
2017-06-26T22:28:25.134Z,20.30
2017-06-26T22:30:54.174Z,20.30
2017-06-26T22:33:23.659Z,20.30
2017-06-26T22:35:51.934Z,20.20
2017-06-26T22:38:21.719Z,20.20
2017-06-26T22:40:50.051Z,20.20
2017-06-26T22:43:18.354Z,20.10
2017-06-26T22:45:47.772Z,20.10
2017-06-26T22:50:46.283Z,20.00
2017-06-26T22:53:16.071Z,20.10
2017-06-26T22:55:44.396Z,20.00
2017-06-26T23:00:42.591Z,19.90
2017-06-26T23:03:10.918Z,19.80
2017-06-26T23:05:40.707Z,19.80
2017-06-26T23:10:39.054Z,19.80
2017-06-26T23:13:07.327Z,19.80
2017-06-26T23:15:36.370Z,19.70
2017-06-26T23:18:05.867Z,19.70
2017-06-26T23:20:34.158Z,19.60
2017-06-26T23:23:02.463Z,19.60
2017-06-26T23:28:00.766Z,19.50
2017-06-26T23:30:30.910Z,19.50
2017-06-26T23:33:00.025Z,19.50
2017-06-26T23:35:28.322Z,19.40
2017-06-26T23:37:56.598Z,19.40
2017-06-26T23:40:26.470Z,19.30
2017-06-26T23:42:54.738Z,19.30
2017-06-26T23:47:52.556Z,19.20
2017-06-26T23:50:20.831Z,19.20
2017-06-26T23:52:49.125Z,19.20
2017-06-26T23:55:17.824Z,19.10
2017-06-26T23:57:46.106Z,19.10
